createdAt,value
2022-09-12T00:00:27.454Z,8.38
2022-09-12T00:01:30.005Z,11.43
2022-09-12T00:02:33.172Z,7.68
2022-09-12T00:03:35.662Z,12.25
2022-09-12T00:04:38.645Z,8.27
2022-09-12T00:05:44.388Z,11.63
2022-09-12T00:06:47.288Z,9.75
2022-09-12T00:07:50.640Z,7.88
2022-09-12T00:08:56.818Z,8.70
2022-09-12T00:09:58.800Z,7.65
2022-09-12T00:11:07.228Z,11.23
2022-09-12T00:12:10.343Z,7.03
2022-09-12T00:13:12.257Z,8.40
2022-09-12T00:14:18.256Z,7.93
2022-09-12T00:15:20.360Z,8.25
2022-09-12T00:16:25.487Z,8.27
2022-09-12T00:17:27.530Z,8.25
2022-09-12T00:18:30.512Z,7.60
2022-09-12T00:19:32.407Z,8.23
2022-09-12T00:20:35.305Z,8.02
2022-09-12T00:21:39.059Z,8.80
2022-09-12T00:22:42.162Z,7.63
2022-09-12T00:23:46.241Z,7.47
2022-09-12T00:24:49.175Z,9.38
2022-09-12T00:25:51.080Z,8.02
2022-09-12T00:26:54.164Z,9.95
2022-09-12T00:27:56.177Z,7.78
2022-09-12T00:28:59.326Z,9.02
2022-09-12T00:30:01.229Z,10.68
2022-09-12T00:31:06.936Z,9.00
2022-09-12T00:32:08.875Z,9.98
2022-09-12T00:33:12.269Z,9.93
2022-09-12T00:34:14.739Z,7.97
2022-09-12T00:35:17.777Z,8.80
2022-09-12T00:36:21.812Z,8.60
2022-09-12T00:37:24.692Z,7.57
2022-09-12T00:38:26.793Z,9.40
2022-09-12T00:39:31.060Z,8.40
2022-09-12T00:40:33.069Z,9.15
2022-09-12T00:41:38.626Z,9.73
2022-09-12T00:42:40.546Z,10.90
2022-09-12T00:43:45.639Z,10.05
2022-09-12T00:44:51.435Z,8.10
2022-09-12T00:45:54.783Z,7.85
2022-09-12T00:47:00.938Z,12.15
2022-09-12T00:48:05.318Z,11.15
2022-09-12T00:49:14.370Z,8.93
2022-09-12T00:50:18.041Z,10.05
2022-09-12T00:51:20.734Z,11.05
2022-09-12T00:52:28.348Z,9.50
2022-09-12T00:53:30.905Z,8.77
2022-09-12T00:54:39.569Z,9.15
2022-09-12T00:55:45.558Z,8.93
2022-09-12T00:56:51.442Z,7.78
2022-09-12T00:57:57.563Z,11.70
2022-09-12T00:59:06.192Z,7.13
2022-09-12T01:00:13.708Z,9.13
2022-09-12T01:01:16.790Z,8.25
2022-09-12T01:02:18.893Z,9.75
2022-09-12T01:03:24.259Z,10.75
2022-09-12T01:04:28.253Z,8.15
2022-09-12T01:05:35.267Z,8.05
2022-09-12T01:06:42.073Z,8.52
2022-09-12T01:07:48.506Z,8.05
2022-09-12T01:08:53.746Z,7.68
2022-09-12T01:09:57.192Z,10.35
2022-09-12T01:11:00.117Z,9.10
2022-09-12T01:12:02.792Z,7.90
2022-09-12T01:13:07.165Z,8.15
2022-09-12T01:14:09.517Z,6.82
2022-09-12T01:15:13.010Z,8.18
2022-09-12T01:16:15.616Z,7.35
2022-09-12T01:17:18.499Z,7.25
2022-09-12T01:18:26.823Z,8.85
2022-09-12T01:20:35.609Z,7.45
2022-09-12T01:21:44.294Z,7.43
2022-09-12T01:23:07.488Z,7.07
2022-09-12T01:24:38.918Z,7.88
2022-09-12T01:25:58.739Z,9.40
2022-09-12T01:27:17.698Z,7.30
2022-09-12T01:28:38.182Z,7.30
2022-09-12T01:30:06.248Z,7.82
2022-09-12T01:31:15.720Z,6.90
2022-09-12T01:32:27.058Z,8.45
2022-09-12T01:33:37.885Z,8.15
2022-09-12T01:34:50.171Z,8.70
2022-09-12T01:36:06.718Z,7.00
2022-09-12T01:37:15.683Z,7.20
2022-09-12T01:38:26.080Z,8.80
2022-09-12T01:39:37.822Z,7.78
2022-09-12T01:40:46.313Z,10.65
2022-09-12T01:41:55.925Z,8.45
2022-09-12T01:43:05.291Z,8.68
2022-09-12T01:44:21.503Z,7.95
2022-09-12T01:45:30.132Z,8.45
2022-09-12T01:46:41.359Z,7.47
2022-09-12T01:47:51.050Z,9.43
2022-09-12T01:48:59.601Z,8.73
2022-09-12T01:50:07.276Z,7.50
2022-09-12T01:51:14.807Z,7.07
2022-09-12T01:52:23.744Z,8.00
2022-09-12T01:53:30.101Z,7.90
2022-09-12T01:54:39.937Z,7.25
2022-09-12T01:55:46.424Z,8.95
2022-09-12T01:56:54.190Z,7.20
2022-09-12T01:58:04.162Z,8.70
2022-09-12T01:59:13.608Z,7.95
2022-09-12T02:00:16.769Z,8.13
2022-09-12T02:01:23.252Z,8.15
2022-09-12T02:02:34.923Z,9.82
2022-09-12T02:03:44.727Z,8.00
2022-09-12T02:04:52.764Z,9.93
2022-09-12T02:05:59.916Z,10.85
2022-09-12T02:07:09.053Z,8.68
2022-09-12T02:08:14.918Z,10.05
2022-09-12T02:09:22.811Z,7.95
2022-09-12T02:10:32.514Z,7.53
2022-09-12T02:11:38.381Z,7.40
2022-09-12T02:12:44.793Z,8.25
2022-09-12T02:13:55.167Z,7.93
2022-09-12T02:15:02.510Z,8.05
2022-09-12T02:16:09.919Z,9.43
2022-09-12T02:17:14.903Z,9.45
2022-09-12T02:18:21.155Z,6.55
2022-09-12T02:19:28.223Z,6.75
2022-09-12T02:20:47.982Z,6.07
2022-09-12T02:21:54.068Z,9.98
2022-09-12T02:22:59.079Z,7.82
2022-09-12T02:24:04.952Z,7.15
2022-09-12T02:25:11.615Z,10.05
2022-09-12T02:26:24.861Z,7.10
2022-09-12T02:27:34.691Z,15.13
2022-09-12T02:28:42.256Z,5.45
2022-09-12T02:29:46.134Z,9.50
2022-09-12T02:30:56.505Z,8.30
2022-09-12T02:32:01.845Z,6.25
2022-09-12T02:33:07.558Z,7.32
2022-09-12T02:34:27.909Z,7.03
2022-09-12T02:35:39.258Z,6.22
2022-09-12T02:36:51.087Z,6.70
2022-09-12T02:38:00.110Z,8.25
2022-09-12T02:39:03.175Z,7.05
2022-09-12T02:40:07.087Z,8.70
2022-09-12T02:41:10.263Z,8.27
2022-09-12T02:42:12.601Z,8.50
2022-09-12T02:43:15.667Z,8.68
2022-09-12T02:44:18.037Z,5.90
2022-09-12T02:45:22.808Z,8.40
2022-09-12T02:46:31.449Z,6.78
2022-09-12T02:47:39.897Z,6.50
2022-09-12T02:48:43.838Z,8.55
2022-09-12T02:49:48.508Z,8.32
2022-09-12T02:50:50.584Z,6.53
2022-09-12T02:51:53.548Z,6.68
2022-09-12T02:52:59.789Z,6.25
2022-09-12T02:54:03.558Z,5.60
2022-09-12T02:55:06.684Z,7.68
2022-09-12T02:56:13.675Z,8.18
2022-09-12T02:57:20.618Z,8.45
2022-09-12T02:58:28.600Z,8.60
2022-09-12T02:59:31.537Z,7.20
2022-09-12T03:00:37.844Z,6.35
2022-09-12T03:01:57.830Z,8.65
2022-09-12T03:03:19.591Z,6.88
2022-09-12T03:04:45.797Z,5.43
2022-09-12T03:05:57.533Z,8.30
2022-09-12T03:07:09.988Z,7.32
2022-09-12T03:08:39.476Z,5.55
2022-09-12T03:09:47.340Z,6.55
2022-09-12T03:11:22.789Z,7.72
2022-09-12T03:12:39.617Z,8.27
2022-09-12T03:13:52.909Z,9.63
2022-09-12T03:15:08.645Z,8.60
2022-09-12T03:16:20.668Z,5.90
2022-09-12T03:17:31.303Z,5.57
2022-09-12T03:18:48.493Z,5.72
2022-09-12T03:19:57.006Z,5.55
2022-09-12T03:21:07.285Z,5.97
2022-09-12T03:22:15.825Z,6.75
2022-09-12T03:23:28.236Z,6.30
2022-09-12T03:24:35.445Z,7.82
2022-09-12T03:25:43.163Z,5.85
2022-09-12T03:26:50.644Z,6.47
2022-09-12T03:27:59.666Z,6.47
2022-09-12T03:29:03.539Z,9.07
2022-09-12T03:30:07.420Z,6.55
2022-09-12T03:31:14.475Z,5.65
2022-09-12T03:32:17.408Z,6.22
2022-09-12T03:33:20.885Z,5.88
2022-09-12T03:34:26.042Z,8.32
2022-09-12T03:35:27.979Z,10.23
2022-09-12T03:36:32.373Z,5.28
2022-09-12T03:37:34.368Z,6.25
2022-09-12T03:38:37.309Z,5.22
2022-09-12T03:39:39.442Z,6.40
2022-09-12T03:40:42.545Z,6.20
2022-09-12T03:41:44.731Z,7.28
2022-09-12T03:42:47.594Z,6.80
2022-09-12T03:43:49.549Z,5.90
2022-09-12T03:44:52.568Z,5.47
2022-09-12T03:45:54.590Z,8.52
2022-09-12T03:46:57.586Z,7.47
2022-09-12T03:48:00.030Z,9.98
2022-09-12T03:49:03.022Z,7.68
2022-09-12T03:50:06.455Z,7.00
2022-09-12T03:51:11.463Z,7.05
2022-09-12T03:52:14.720Z,6.03
2022-09-12T03:53:17.701Z,9.38
2022-09-12T03:54:19.712Z,5.78
2022-09-12T03:55:22.962Z,5.28
2022-09-12T03:56:24.935Z,7.15
2022-09-12T03:57:27.869Z,6.78
2022-09-12T03:58:31.357Z,7.85
2022-09-12T03:59:34.397Z,7.95
2022-09-12T04:00:36.333Z,7.07
2022-09-12T04:01:39.333Z,6.03
2022-09-12T04:02:41.235Z,7.43
2022-09-12T04:03:45.091Z,7.82
2022-09-12T04:04:48.884Z,7.60
2022-09-12T04:05:51.890Z,6.10
2022-09-12T04:06:53.802Z,6.57
2022-09-12T04:07:58.111Z,7.55
2022-09-12T04:09:00.134Z,8.43
2022-09-12T04:10:03.991Z,7.32
2022-09-12T04:11:07.736Z,7.47
2022-09-12T04:12:10.634Z,6.78
2022-09-12T04:13:12.559Z,9.95
2022-09-12T04:14:15.475Z,6.70
2022-09-12T04:15:17.434Z,6.05
2022-09-12T04:16:20.497Z,7.05
2022-09-12T04:17:22.456Z,6.85
2022-09-12T04:18:25.423Z,6.38
2022-09-12T04:19:27.684Z,9.38
2022-09-12T04:20:30.590Z,7.13
2022-09-12T04:21:32.811Z,6.63
2022-09-12T04:22:35.716Z,6.55
2022-09-12T04:23:39.116Z,7.10
2022-09-12T04:24:42.041Z,7.05
2022-09-12T04:25:44.003Z,7.03
2022-09-12T04:26:46.903Z,8.90
2022-09-12T04:27:48.894Z,6.88
2022-09-12T04:28:56.201Z,10.80
2022-09-12T04:29:59.543Z,8.23
2022-09-12T04:31:03.866Z,12.05
2022-09-12T04:32:06.217Z,10.43
2022-09-12T04:33:09.165Z,11.77
2022-09-12T04:34:11.309Z,8.25
2022-09-12T04:35:14.214Z,8.55
2022-09-12T04:36:17.660Z,11.32
2022-09-12T04:37:21.178Z,10.80
2022-09-12T04:38:23.208Z,9.68
2022-09-12T04:39:27.846Z,8.02
2022-09-12T04:40:29.950Z,8.45
2022-09-12T04:41:35.008Z,7.88
2022-09-12T04:42:36.961Z,6.43
2022-09-12T04:43:39.926Z,7.40
2022-09-12T04:44:41.903Z,7.25
2022-09-12T04:45:44.911Z,7.78
2022-09-12T04:46:48.582Z,7.13
2022-09-12T04:47:51.520Z,6.10
2022-09-12T04:48:56.897Z,5.60
2022-09-12T04:50:00.163Z,6.22
2022-09-12T04:51:10.773Z,7.95
2022-09-12T04:52:13.769Z,7.53
2022-09-12T04:53:15.707Z,7.07
2022-09-12T04:54:20.649Z,7.25
2022-09-12T04:55:26.390Z,6.57
2022-09-12T04:56:30.647Z,6.80
2022-09-12T04:57:33.825Z,8.57
2022-09-12T04:58:36.536Z,6.28
2022-09-12T04:59:39.801Z,7.20
2022-09-12T05:00:41.969Z,10.25
2022-09-12T05:01:45.539Z,7.45
2022-09-12T05:02:47.465Z,7.28
2022-09-12T05:03:51.585Z,9.20
2022-09-12T05:04:54.490Z,6.90
2022-09-12T05:05:57.532Z,10.10
2022-09-12T05:07:00.459Z,8.43
2022-09-12T05:08:02.695Z,9.93
2022-09-12T05:09:07.265Z,7.18
2022-09-12T05:10:10.376Z,7.72
2022-09-12T05:11:16.715Z,9.82
2022-09-12T05:12:19.695Z,7.53
2022-09-12T05:13:22.135Z,8.68
2022-09-12T05:14:25.083Z,8.02
2022-09-12T05:15:26.971Z,9.82
2022-09-12T05:16:31.285Z,10.65
2022-09-12T05:17:33.324Z,10.07
2022-09-12T05:18:37.436Z,7.82
2022-09-12T05:19:39.426Z,7.68
2022-09-12T05:20:42.363Z,9.38
2022-09-12T05:21:44.414Z,12.40
2022-09-12T05:22:47.323Z,12.70
2022-09-12T05:23:51.992Z,8.25
2022-09-12T05:24:55.008Z,7.35
2022-09-12T05:25:58.686Z,8.32
2022-09-12T05:27:03.455Z,10.85
2022-09-12T05:28:05.442Z,10.18
2022-09-12T05:29:08.376Z,14.75
2022-09-12T05:30:11.820Z,8.45
2022-09-12T05:31:23.045Z,9.95
2022-09-12T05:32:31.751Z,9.20
2022-09-12T05:33:36.311Z,10.70
2022-09-12T05:34:38.877Z,12.27
2022-09-12T05:35:42.613Z,8.25
2022-09-12T05:36:45.566Z,9.43
2022-09-12T05:37:48.488Z,12.27
2022-09-12T05:38:50.705Z,7.55
2022-09-12T05:39:53.644Z,11.45
2022-09-12T05:41:03.574Z,8.15
2022-09-12T05:42:09.246Z,9.00
2022-09-12T05:43:12.426Z,9.00
2022-09-12T05:44:16.132Z,10.02
2022-09-12T05:45:18.091Z,9.77
2022-09-12T05:46:22.897Z,8.93
2022-09-12T05:47:24.866Z,10.82
2022-09-12T05:48:28.529Z,11.52
2022-09-12T05:49:31.563Z,6.68
2022-09-12T05:50:33.540Z,7.07
2022-09-12T05:51:38.396Z,10.25
2022-09-12T05:52:40.707Z,11.63
2022-09-12T05:53:43.696Z,10.40
2022-09-12T05:54:47.531Z,11.05
2022-09-12T05:55:50.056Z,10.43
2022-09-12T05:56:53.004Z,9.80
2022-09-12T05:57:56.361Z,10.27
2022-09-12T05:59:01.870Z,9.15
2022-09-12T06:00:05.477Z,7.65
2022-09-12T06:01:16.988Z,9.90
2022-09-12T06:02:19.977Z,8.70
2022-09-12T06:03:22.024Z,8.90
2022-09-12T06:04:25.389Z,11.50
2022-09-12T06:05:27.407Z,8.85
2022-09-12T06:06:31.601Z,14.23
2022-09-12T06:07:33.529Z,13.82
2022-09-12T06:08:37.481Z,9.77
2022-09-12T06:09:40.452Z,10.85
2022-09-12T06:10:43.417Z,9.82
2022-09-12T06:11:47.424Z,11.15
2022-09-12T06:12:50.336Z,12.55
2022-09-12T06:13:53.795Z,10.23
2022-09-12T06:14:57.009Z,9.85
2022-09-12T06:16:04.011Z,11.60
2022-09-12T06:17:06.916Z,13.48
2022-09-12T06:18:08.837Z,16.95
2022-09-12T06:19:16.300Z,13.30
2022-09-12T06:20:20.630Z,14.00
2022-09-12T06:21:24.330Z,13.00
2022-09-12T06:22:26.243Z,16.10
2022-09-12T06:23:29.403Z,14.45
2022-09-12T06:24:32.603Z,12.65
2022-09-12T06:25:34.587Z,14.00
2022-09-12T06:26:37.832Z,12.05
2022-09-12T06:27:40.772Z,18.70
2022-09-12T06:28:44.941Z,19.80
2022-09-12T06:29:49.226Z,16.35
2022-09-12T06:30:51.410Z,16.95
2022-09-12T06:31:54.292Z,16.40
2022-09-12T06:32:56.893Z,16.52
2022-09-12T06:34:01.878Z,20.52
2022-09-12T06:35:05.514Z,11.55
2022-09-12T06:36:12.519Z,15.35
2022-09-12T06:37:15.805Z,18.67
2022-09-12T06:38:18.452Z,13.55
2022-09-12T06:39:22.751Z,16.48
2022-09-12T06:40:24.895Z,20.17
2022-09-12T06:41:28.994Z,20.15
2022-09-12T06:42:30.916Z,17.40
2022-09-12T06:43:34.601Z,21.60
2022-09-12T06:44:37.381Z,16.23
2022-09-12T06:45:50.309Z,17.48
2022-09-12T06:46:54.127Z,31.35
2022-09-12T06:47:56.734Z,22.55
2022-09-12T06:49:00.796Z,31.98
2022-09-12T06:50:02.773Z,29.75
2022-09-12T06:51:07.532Z,22.60
2022-09-12T06:52:10.614Z,25.77
2022-09-12T06:53:12.582Z,16.55
2022-09-12T06:54:17.426Z,22.02
2022-09-12T06:55:21.717Z,17.33
2022-09-12T06:56:28.876Z,20.08
2022-09-12T06:57:31.542Z,20.20
2022-09-12T06:58:35.376Z,20.35
2022-09-12T06:59:38.433Z,19.40
2022-09-12T07:00:41.783Z,24.83
2022-09-12T07:01:44.741Z,18.05
2022-09-12T07:02:46.739Z,18.90
2022-09-12T07:03:51.082Z,19.35
2022-09-12T07:04:53.063Z,22.42
2022-09-12T07:05:56.001Z,17.33
2022-09-12T07:06:58.925Z,20.40
2022-09-12T07:08:00.902Z,18.98
2022-09-12T07:09:06.782Z,21.70
2022-09-12T07:10:11.808Z,16.92
2022-09-12T07:11:17.756Z,18.27
2022-09-12T07:12:19.770Z,19.02
2022-09-12T07:13:22.693Z,15.95
2022-09-12T07:14:26.045Z,16.35
2022-09-12T07:15:28.934Z,18.23
2022-09-12T07:16:32.666Z,20.80
2022-09-12T07:17:35.612Z,18.55
2022-09-12T07:18:38.570Z,17.85
2022-09-12T07:19:41.772Z,16.02
2022-09-12T07:20:44.068Z,18.75
2022-09-12T07:21:47.048Z,16.20
2022-09-12T07:22:49.022Z,14.68
2022-09-12T07:23:55.267Z,13.32
2022-09-12T07:24:57.721Z,14.73
2022-09-12T07:26:02.065Z,15.02
2022-09-12T07:27:05.134Z,14.82
2022-09-12T07:28:07.045Z,16.08
2022-09-12T07:30:39.394Z,16.60
2022-09-12T07:31:43.633Z,13.02
2022-09-12T07:32:46.532Z,14.98
2022-09-12T07:33:54.354Z,13.48
2022-09-12T07:34:57.797Z,14.70
2022-09-12T07:36:01.632Z,12.65
2022-09-12T07:37:04.711Z,11.90
2022-09-12T07:38:06.796Z,14.45
2022-09-12T07:39:09.724Z,11.65
2022-09-12T07:40:11.737Z,10.82
2022-09-12T07:41:15.792Z,11.40
2022-09-12T07:42:18.684Z,10.00
2022-09-12T07:43:20.702Z,12.82
2022-09-12T07:44:23.640Z,18.75
2022-09-12T07:45:26.849Z,16.38
2022-09-12T07:46:29.881Z,37.03
2022-09-12T07:47:34.110Z,28.67
2022-09-12T07:48:36.288Z,23.25
2022-09-12T07:49:39.207Z,15.48
2022-09-12T07:50:45.046Z,18.13
2022-09-12T07:51:48.205Z,17.25
2022-09-12T07:52:50.517Z,13.18
2022-09-12T07:53:53.739Z,16.45
2022-09-12T07:54:55.655Z,13.05
2022-09-12T07:55:58.913Z,13.40
2022-09-12T07:57:00.864Z,11.63
2022-09-12T07:58:03.866Z,13.45
2022-09-12T07:59:05.813Z,12.43
2022-09-12T08:00:10.917Z,12.10
2022-09-12T08:01:19.040Z,10.20
2022-09-12T08:02:21.085Z,12.02
2022-09-12T08:03:25.388Z,13.13
2022-09-12T08:04:27.300Z,12.27
2022-09-12T08:05:30.996Z,12.45
2022-09-12T08:06:36.087Z,9.77
2022-09-12T08:07:39.140Z,12.05
2022-09-12T08:08:41.462Z,11.35
2022-09-12T08:09:44.362Z,11.25
2022-09-12T08:10:47.369Z,12.70
2022-09-12T08:11:50.268Z,10.63
2022-09-12T08:12:52.246Z,12.30
2022-09-12T08:13:57.190Z,14.02
2022-09-12T08:15:00.523Z,14.25
2022-09-12T08:16:04.366Z,10.48
2022-09-12T08:17:07.453Z,12.10
2022-09-12T08:18:09.396Z,8.27
2022-09-12T08:19:13.652Z,8.93
2022-09-12T08:20:15.657Z,8.38
2022-09-12T08:21:22.935Z,12.77
2022-09-12T08:22:26.163Z,10.35
2022-09-12T08:23:29.342Z,6.57
2022-09-12T08:24:32.430Z,7.78
2022-09-12T08:25:34.901Z,5.90
2022-09-12T08:26:37.814Z,8.38
2022-09-12T08:27:40.821Z,8.00
2022-09-12T08:28:45.732Z,7.30
2022-09-12T08:29:48.653Z,6.05
2022-09-12T08:30:50.688Z,9.38
2022-09-12T08:31:57.107Z,7.88
2022-09-12T08:32:59.531Z,15.30
2022-09-12T08:34:02.430Z,13.68
2022-09-12T08:35:08.044Z,12.20
2022-09-12T08:36:11.946Z,7.90
2022-09-12T08:37:15.184Z,8.65
2022-09-12T08:38:17.136Z,10.15
2022-09-12T08:39:20.045Z,5.90
2022-09-12T08:40:21.997Z,6.68
2022-09-12T08:41:30.259Z,5.38
2022-09-12T08:42:53.178Z,4.32
2022-09-12T08:44:26.096Z,6.68
2022-09-12T08:45:35.555Z,5.53
2022-09-12T08:46:48.144Z,4.18
2022-09-12T08:47:52.105Z,6.80
2022-09-12T08:48:55.785Z,5.25
2022-09-12T08:50:13.271Z,9.75
2022-09-12T08:51:18.508Z,5.30
2022-09-12T08:52:28.893Z,4.60
2022-09-12T08:53:37.121Z,4.07
2022-09-12T08:54:39.754Z,4.65
2022-09-12T08:55:45.564Z,4.60
2022-09-12T08:56:48.495Z,4.05
2022-09-12T08:57:51.964Z,5.57
2022-09-12T08:58:54.857Z,3.10
2022-09-12T08:59:57.054Z,2.63
2022-09-12T09:01:08.424Z,2.92
2022-09-12T09:02:34.642Z,4.28
2022-09-12T09:04:01.839Z,3.97
2022-09-12T09:05:13.577Z,3.00
2022-09-12T09:06:27.806Z,4.28
2022-09-12T09:07:52.344Z,4.03
2022-09-12T09:09:04.921Z,4.15
2022-09-12T09:10:23.347Z,3.58
2022-09-12T09:11:44.062Z,5.13
2022-09-12T09:12:57.317Z,5.07
2022-09-12T09:14:32.860Z,2.80
2022-09-12T09:15:44.958Z,3.67
2022-09-12T09:16:49.849Z,6.68
2022-09-12T09:17:56.282Z,4.47
2022-09-12T09:19:02.486Z,6.25
2022-09-12T09:20:16.262Z,7.20
2022-09-12T09:21:24.794Z,8.75
2022-09-12T09:22:38.215Z,4.57
2022-09-12T09:23:45.217Z,3.72
2022-09-12T09:24:53.295Z,4.05
2022-09-12T09:26:01.738Z,5.85
2022-09-12T09:27:23.627Z,5.03
2022-09-12T09:28:37.641Z,5.45
2022-09-12T09:29:45.407Z,5.88
2022-09-12T09:30:48.459Z,6.95
2022-09-12T09:31:54.355Z,3.70
2022-09-12T09:32:59.209Z,6.53
2022-09-12T09:34:01.300Z,3.88
2022-09-12T09:35:13.177Z,7.63
2022-09-12T09:36:22.413Z,8.77
2022-09-12T09:37:32.551Z,5.18
2022-09-12T09:38:47.392Z,6.85
2022-09-12T09:39:59.408Z,5.10
2022-09-12T09:41:12.970Z,5.63
2022-09-12T09:42:30.755Z,5.82
2022-09-12T09:43:33.679Z,5.90
2022-09-12T09:44:36.380Z,4.20
2022-09-12T09:45:43.428Z,5.07
2022-09-12T09:46:51.284Z,5.32
2022-09-12T09:47:58.840Z,5.03
2022-09-12T09:49:04.144Z,6.32
2022-09-12T09:50:07.002Z,5.00
2022-09-12T09:51:10.441Z,5.82
2022-09-12T09:52:17.194Z,4.63
2022-09-12T09:53:28.493Z,4.38
2022-09-12T09:54:37.613Z,6.95
2022-09-12T09:55:43.131Z,3.72
2022-09-12T09:56:46.932Z,6.00
2022-09-12T09:57:49.938Z,5.25
2022-09-12T09:58:53.092Z,3.70
2022-09-12T09:59:55.069Z,5.93
2022-09-12T10:01:00.974Z,4.40
2022-09-12T10:02:24.030Z,3.88
2022-09-12T10:03:30.984Z,4.93
2022-09-12T10:04:41.210Z,4.90
2022-09-12T10:05:49.575Z,5.50
2022-09-12T10:06:54.379Z,6.07
2022-09-12T10:07:58.448Z,5.30
2022-09-12T10:09:19.734Z,6.13
2022-09-12T10:10:22.842Z,4.40
2022-09-12T10:11:30.267Z,4.60
2022-09-12T10:12:32.288Z,6.45
2022-09-12T10:13:40.555Z,5.18
2022-09-12T10:14:43.505Z,4.28
2022-09-12T10:15:57.744Z,7.00
2022-09-12T10:17:00.739Z,3.40
2022-09-12T10:18:04.764Z,5.18
2022-09-12T10:19:22.556Z,3.80
2022-09-12T10:20:33.640Z,6.18
2022-09-12T10:21:41.322Z,7.00
2022-09-12T10:22:47.885Z,4.47
2022-09-12T10:24:01.087Z,4.65
2022-09-12T10:25:11.418Z,5.63
2022-09-12T10:26:17.357Z,5.18
2022-09-12T10:27:23.189Z,2.92
2022-09-12T10:28:32.349Z,3.13
2022-09-12T10:29:45.463Z,5.03
2022-09-12T10:30:52.528Z,2.70
2022-09-12T10:31:58.763Z,3.72
2022-09-12T10:33:08.303Z,2.63
2022-09-12T10:34:22.960Z,3.03
2022-09-12T10:35:31.017Z,2.42
2022-09-12T10:36:38.510Z,1.80
2022-09-12T10:37:41.989Z,5.32
2022-09-12T10:38:49.984Z,3.15
2022-09-12T10:39:57.034Z,7.38
2022-09-12T10:41:01.365Z,3.80
2022-09-12T10:42:05.810Z,4.70
2022-09-12T10:43:17.536Z,4.63
2022-09-12T10:44:27.306Z,2.00
2022-09-12T10:45:33.063Z,4.43
2022-09-12T10:46:35.977Z,2.20
2022-09-12T10:47:38.242Z,3.22
2022-09-12T10:48:41.569Z,4.80
2022-09-12T10:49:44.121Z,4.18
2022-09-12T10:50:47.127Z,3.08
2022-09-12T10:51:49.635Z,3.83
2022-09-12T10:52:52.660Z,3.45
2022-09-12T10:53:56.584Z,4.85
2022-09-12T10:55:01.462Z,3.42
2022-09-12T10:56:07.919Z,1.42
2022-09-12T10:57:35.953Z,2.28
2022-09-12T10:59:05.536Z,4.05
2022-09-12T11:00:15.029Z,2.03
2022-09-12T11:01:28.359Z,3.50
2022-09-12T11:02:37.949Z,1.80
2022-09-12T11:04:05.376Z,2.70
2022-09-12T11:05:18.384Z,1.95
2022-09-12T11:06:34.026Z,1.63
2022-09-12T11:07:43.476Z,4.15
2022-09-12T11:08:55.596Z,2.42
2022-09-12T11:10:11.680Z,1.58
2022-09-12T11:11:40.973Z,2.13
2022-09-12T11:12:51.396Z,2.00
2022-09-12T11:14:11.842Z,2.40
2022-09-12T11:15:33.394Z,2.00
2022-09-12T11:16:43.849Z,1.80
2022-09-12T11:17:51.972Z,1.67
2022-09-12T11:19:10.474Z,1.45
2022-09-12T11:20:48.304Z,1.85
2022-09-12T11:22:06.385Z,1.33
2022-09-12T11:23:36.330Z,2.25
2022-09-12T11:24:51.999Z,2.17
2022-09-12T11:26:04.265Z,1.90
2022-09-12T11:27:19.968Z,4.40
2022-09-12T11:28:34.419Z,1.55
2022-09-12T11:29:50.003Z,1.70
2022-09-12T11:31:09.464Z,2.25
2022-09-12T11:32:48.924Z,1.35
2022-09-12T11:33:56.558Z,1.33
2022-09-12T11:35:10.416Z,1.48
2022-09-12T11:36:30.706Z,1.67
2022-09-12T11:37:53.879Z,4.40
2022-09-12T11:39:04.323Z,4.90
2022-09-12T11:40:22.434Z,2.15
2022-09-12T11:41:32.488Z,2.63
2022-09-12T11:42:39.852Z,2.45
2022-09-12T11:43:48.691Z,2.35
2022-09-12T11:44:59.636Z,2.83
2022-09-12T11:46:11.058Z,4.00
2022-09-12T11:47:17.398Z,3.63
2022-09-12T11:48:27.680Z,2.90
2022-09-12T11:49:37.646Z,3.15
2022-09-12T11:50:41.401Z,4.00
2022-09-12T11:51:50.750Z,3.30
2022-09-12T11:52:57.573Z,2.75
2022-09-12T11:54:14.962Z,2.13
2022-09-12T11:55:23.486Z,4.10
2022-09-12T11:56:27.409Z,5.00
2022-09-12T11:57:37.906Z,3.08
2022-09-12T11:59:50.978Z,2.67
2022-09-12T12:00:57.930Z,1.85
2022-09-12T12:02:03.286Z,5.00
2022-09-12T12:03:15.608Z,3.22
2022-09-12T12:04:24.825Z,4.07
2022-09-12T12:05:31.887Z,3.20
2022-09-12T12:06:48.484Z,3.15
2022-09-12T12:08:04.211Z,2.53
2022-09-12T12:09:07.254Z,3.60
2022-09-12T12:10:24.619Z,2.95
2022-09-12T12:11:33.744Z,2.25
2022-09-12T12:12:36.452Z,2.60
2022-09-12T12:13:43.235Z,2.20
2022-09-12T12:14:48.718Z,2.20
2022-09-12T12:15:56.287Z,2.28
2022-09-12T12:16:58.361Z,2.03
2022-09-12T12:18:03.531Z,3.47
2022-09-12T12:19:10.982Z,4.00
2022-09-12T12:20:18.760Z,2.35
2022-09-12T12:21:40.123Z,2.45
2022-09-12T12:22:53.187Z,2.95
2022-09-12T12:24:13.964Z,2.72
2022-09-12T12:25:29.862Z,3.22
2022-09-12T12:26:59.756Z,1.98
2022-09-12T12:28:05.482Z,2.63
2022-09-12T12:29:09.538Z,2.83
2022-09-12T12:31:03.347Z,3.50
2022-09-12T12:32:26.605Z,2.35
2022-09-12T12:34:04.781Z,3.58
2022-09-12T12:35:39.975Z,2.67
2022-09-12T12:36:43.822Z,5.68
2022-09-12T12:37:56.007Z,3.53
2022-09-12T12:38:59.856Z,2.17
2022-09-12T12:40:10.227Z,3.70
2022-09-12T12:41:45.658Z,1.83
2022-09-12T12:43:26.843Z,4.32
2022-09-12T12:44:50.123Z,1.65
2022-09-12T12:46:12.526Z,2.42
2022-09-12T12:47:19.798Z,3.80
2022-09-12T12:48:23.174Z,3.45
2022-09-12T12:49:29.624Z,5.03
2022-09-12T12:50:32.576Z,2.17
2022-09-12T12:51:56.795Z,2.60
2022-09-12T12:53:03.820Z,2.50
2022-09-12T12:54:29.598Z,3.15
2022-09-12T12:55:49.296Z,2.03
2022-09-12T12:57:10.358Z,2.55
2022-09-12T12:58:30.619Z,2.33
2022-09-12T12:59:35.159Z,2.28
2022-09-12T13:00:40.769Z,2.35
2022-09-12T13:01:55.566Z,3.67
2022-09-12T13:03:02.902Z,2.95
2022-09-12T13:04:14.316Z,2.63
2022-09-12T13:05:20.946Z,2.50
2022-09-12T13:06:32.478Z,1.73
2022-09-12T13:07:37.967Z,2.80
2022-09-12T13:08:46.356Z,2.40
2022-09-12T13:09:54.524Z,4.13
2022-09-12T13:11:00.483Z,5.35
2022-09-12T13:12:08.504Z,5.63
2022-09-12T13:13:23.739Z,4.57
2022-09-12T13:14:48.566Z,7.55
2022-09-12T13:15:54.243Z,3.20
2022-09-12T13:17:01.135Z,6.47
2022-09-12T13:18:06.096Z,3.60
2022-09-12T13:19:18.149Z,6.35
2022-09-12T13:20:28.222Z,2.30
2022-09-12T13:21:31.422Z,2.50
2022-09-12T13:22:41.748Z,4.50
2022-09-12T13:23:46.164Z,3.83
2022-09-12T13:24:51.534Z,4.57
2022-09-12T13:25:56.294Z,3.20
2022-09-12T13:26:58.241Z,2.00
2022-09-12T13:28:16.764Z,4.80
2022-09-12T13:29:21.324Z,9.02
2022-09-12T13:30:24.302Z,5.88
2022-09-12T13:31:30.168Z,10.10
2022-09-12T13:32:33.558Z,4.28
2022-09-12T13:33:40.889Z,5.13
2022-09-12T13:35:00.064Z,2.65
2022-09-12T13:36:28.230Z,2.08
2022-09-12T13:37:49.759Z,3.03
2022-09-12T13:39:24.408Z,15.38
2022-09-12T13:40:33.236Z,3.22
2022-09-12T13:42:23.687Z,5.97
2022-09-12T13:43:36.402Z,3.97
2022-09-12T13:44:44.976Z,4.78
2022-09-12T13:45:47.584Z,4.97
2022-09-12T13:46:51.956Z,6.03
2022-09-12T13:47:58.844Z,6.13
2022-09-12T13:49:11.289Z,3.75
2022-09-12T13:50:18.172Z,5.28
2022-09-12T13:51:25.777Z,5.25
2022-09-12T13:52:30.937Z,3.72
2022-09-12T13:53:45.076Z,6.90
2022-09-12T13:54:50.098Z,4.47
2022-09-12T13:55:56.019Z,3.58
2022-09-12T13:56:59.719Z,7.72
2022-09-12T13:58:05.031Z,7.43
2022-09-12T13:59:13.349Z,4.28
2022-09-12T14:00:19.914Z,2.58
2022-09-12T14:01:23.156Z,3.40
2022-09-12T14:02:29.297Z,4.25
2022-09-12T14:03:50.866Z,3.70
2022-09-12T14:05:10.209Z,4.78
2022-09-12T14:06:12.758Z,5.32
2022-09-12T14:07:20.242Z,4.55
2022-09-12T14:08:23.958Z,2.70
2022-09-12T14:09:31.123Z,3.40
2022-09-12T14:10:35.144Z,2.50
2022-09-12T14:11:40.007Z,3.85
2022-09-12T14:12:43.502Z,2.05
2022-09-12T14:13:48.182Z,3.95
2022-09-12T14:14:52.890Z,5.78
2022-09-12T14:16:49.523Z,4.25
2022-09-12T14:17:54.806Z,2.95
2022-09-12T14:18:57.622Z,4.80
2022-09-12T14:20:04.151Z,4.32
2022-09-12T14:21:12.764Z,4.03
2022-09-12T14:22:18.003Z,4.47
2022-09-12T14:23:27.456Z,3.92
2022-09-12T14:24:31.048Z,4.95
2022-09-12T14:25:41.419Z,3.10
2022-09-12T14:26:44.950Z,3.50
2022-09-12T14:27:52.571Z,5.72
2022-09-12T14:28:54.958Z,3.95
2022-09-12T14:30:06.782Z,5.70
2022-09-12T14:31:23.729Z,3.95
2022-09-12T14:32:26.723Z,3.38
2022-09-12T14:33:28.901Z,3.05
2022-09-12T14:34:32.136Z,3.22
2022-09-12T14:35:34.431Z,3.65
2022-09-12T14:36:42.362Z,5.07
2022-09-12T14:37:46.865Z,4.20
2022-09-12T14:38:52.405Z,4.30
2022-09-12T14:39:54.509Z,5.25
2022-09-12T14:41:02.628Z,3.33
2022-09-12T14:42:09.209Z,4.25
2022-09-12T14:43:20.769Z,5.05
2022-09-12T14:44:26.375Z,4.38
2022-09-12T14:45:32.174Z,4.45
2022-09-12T14:46:36.808Z,8.23
2022-09-12T14:47:42.771Z,3.42
2022-09-12T14:48:48.888Z,5.20
2022-09-12T14:49:51.735Z,5.85
2022-09-12T14:50:55.213Z,4.18
2022-09-12T14:52:00.860Z,3.80
2022-09-12T14:53:04.778Z,6.80